Seabourn Sojourn — C6YA5 — position and weather

sailwx.info

Track history (hours):
 
Tides and Currents Weather Stations Pressure Air Temp Water Temp Dewpoint Dewpoint Depression Visibility Wind Speed Wind Dir Waves Ship Positions

Seabourn Sojourn

Last reported at 2020-Sep-25 12:00 UTC. Time now 2020-Sep-25 17:05 UTC.
Position N 12°24' W 070°00'.

Length 197 m; draft 6.6 m.

Type: Ship. MMSI: 311027100.

Wind from 100 at 12 knots

Barometer 1015.0 mb

Date/timePositionNaut miles runAvg speedWind from/ knotsBaromVisibWave heightAir tempDewpointWater temp
2020-Sep-25 12:00N 12°24' W 070°00'67 2.0 100 / 121015.0
2020-Sep-24 03:00N 12°06' W 068°54'0 0.0 1014.0
2020-Sep-24 02:00N 12°06' W 068°54'0 0.0 1013.0
2020-Sep-24 01:00N 12°06' W 068°54'0 0.0 1012.0
2020-Sep-24 00:00N 12°06' W 068°54'0 0.0 1012.0
2020-Sep-23 23:00N 12°06' W 068°54'0 0.0 1011.0
2020-Sep-23 16:00N 12°06' W 068°54'0 0.0 1012.0
2020-Sep-23 15:00N 12°06' W 068°54'0 0.0 1013.0
2020-Sep-23 14:00N 12°06' W 068°54'6 0.5 1013.0
2020-Sep-23 02:00N 12°00' W 068°54'0 0.0 1012.0
2020-Sep-23 01:00N 12°00' W 068°54'0 0.0 1011.0
2020-Sep-23 00:00N 12°00' W 068°54'0 0.0 1010.0
2020-Sep-22 16:00N 12°00' W 068°54'0 0.0 1012.0
2020-Sep-22 15:00N 12°00' W 068°54'0 0.0 1013.0
2020-Sep-22 14:00N 12°00' W 068°54'0 0.0 1013.0
2020-Sep-22 03:00N 12°00' W 068°54'0 0.0 1012.0
2020-Sep-22 02:00N 12°00' W 068°54'6 2.0 1012.0
2020-Sep-21 23:00N 12°06' W 068°54'47 2.4 1009.0
2020-Sep-21 03:00N 12°12' W 069°42'8 2.8 1013.0
2020-Sep-21 00:00N 12°18' W 069°48'6 5.9 090 / 201011.0
2020-Sep-20 23:00N 12°18' W 069°54'13 1.2 070 / 161010.0
2020-Sep-20 12:00N 12°12' W 069°42'43 7.1 1012.0
2020-Sep-20 06:00N 11°48' W 069°06'13 4.4 160 / 81011.0 28.417.332.0
2020-Sep-20 03:00N 11°54' W 068°54'0 0.0 090 / 141012.0
2020-Sep-20 02:00N 11°54' W 068°54'0 0.0 070 / 141013.0
2020-Sep-20 01:00N 11°54' W 068°54'6 6.0 080 / 151012.0
2020-Sep-20 00:00N 12°00' W 068°54'0 0.0 060 / 151011.0
2020-Sep-19 23:00N 12°00' W 068°54'8 4.2 050 / 81010.0
2020-Sep-19 21:00N 12°06' W 069°00'6 0.6 040 / 91012.0 5.4 27.116.131.6
2020-Sep-19 11:00N 12°00' W 069°00'13 1.6 040 / 31012.0 5.4 27.116.131.6
2020-Sep-19 03:00N 12°06' W 069°12'0 0.0 1012.0
2020-Sep-19 02:00N 12°06' W 069°12'0 0.0 1012.0
2020-Sep-19 01:00N 12°06' W 069°12'6 5.9 040 / 211011.0
2020-Sep-19 00:00N 12°06' W 069°18'0 0.0 040 / 221011.0
2020-Sep-18 23:00N 12°06' W 069°18'6 1.2 040 / 211010.0
2020-Sep-18 18:00N 12°00' W 069°18'0 0.0 230 / 21011.010.8 34.122.531.6
2020-Sep-18 16:00N 12°00' W 069°18'0 0.0 100 / 21013.0
2020-Sep-18 15:00N 12°00' W 069°18'0 0.0 090 / 21014.0
2020-Sep-18 14:00N 12°00' W 069°18'0 0.0 120 / 6 gusting 151014.0 11.6 9.1
2020-Sep-18 11:00N 12°00' W 069°18'0 0.0 090 / 41011.1 5.4
2020-Sep-18 09:00N 12°00' W 069°18'0 0.0 080 / 151011.0 5.4
2020-Sep-18 08:00N 12°00' W 069°18'8 1.7 1011.0
2020-Sep-18 03:00N 11°54' W 069°12'0 0.0 080 / 151012.0
2020-Sep-18 02:00N 11°54' W 069°12'0 0.0 090 / 161012.0
2020-Sep-18 01:00N 11°54' W 069°12'0 0.0 080 / 151011.0
2020-Sep-18 00:00N 11°54' W 069°12'6 5.9 080 / 111011.0
2020-Sep-17 23:00N 11°54' W 069°06'6 0.8 070 / 171010.0
2020-Sep-17 16:00N 11°54' W 069°00'6 1.2 1014.0
2020-Sep-17 11:00N 11°54' W 068°54'6 0.7 130 / 161013.0 5.4
2020-Sep-17 03:00N 11°54' W 069°00'0 0.0 1014.0
2020-Sep-17 02:00N 11°54' W 069°00'8 8.4 1014.0
2020-Sep-17 01:00N 12°00' W 068°54'13 1.5 1014.0
2020-Sep-16 16:00N 12°06' W 069°06'6 5.9 130 / 251014.0
2020-Sep-16 15:00N 12°06' W 069°00'0 0.0 130 / 251015.0
2020-Sep-16 14:00N 12°06' W 069°00'8 0.8 100 / 161015.0
2020-Sep-16 03:00N 12°00' W 069°06'0 0.0 1015.0
2020-Sep-16 02:00N 12°00' W 069°06'0 0.0 1014.0
2020-Sep-16 01:00N 12°00' W 069°06'0 0.0 1014.0
2020-Sep-16 00:00N 12°00' W 069°06'6 5.9 1013.0
2020-Sep-15 23:00N 12°00' W 069°00'0 0.0 090 / 211012.0
2020-Sep-15 16:00N 12°00' W 069°00'8 8.4 1016.0
2020-Sep-15 15:00N 12°06' W 069°06'6 6.0 1016.0
2020-Sep-15 14:00N 12°12' W 069°06'   1015.0
Track history (hours):
 
Tides and Currents Weather Stations Pressure Air Temp Water Temp Dewpoint Dewpoint Depression Visibility Wind Speed Wind Dir Waves Ship Positions

Seabourn Sojourn

Last reported at 2020-Sep-25 12:00 UTC. Time now 2020-Sep-25 17:05 UTC.
Position N 12°24' W 070°00'.

Length 197 m; draft 6.6 m.

Type: Ship. MMSI: 311027100.

Wind from 100 at 12 knots

Barometer 1015.0 mb

Date/timePositionNaut miles runAvg speedWind from/ knotsBaromVisibWave heightAir tempDewpointWater temp
2020-Sep-25 12:00N 12°24' W 070°00'67 2.0 100 / 121015.0
2020-Sep-24 03:00N 12°06' W 068°54'0 0.0 1014.0
2020-Sep-24 02:00N 12°06' W 068°54'0 0.0 1013.0
2020-Sep-24 01:00N 12°06' W 068°54'0 0.0 1012.0
2020-Sep-24 00:00N 12°06' W 068°54'0 0.0 1012.0
2020-Sep-23 23:00N 12°06' W 068°54'0 0.0 1011.0
2020-Sep-23 16:00N 12°06' W 068°54'0 0.0 1012.0
2020-Sep-23 15:00N 12°06' W 068°54'0 0.0 1013.0
2020-Sep-23 14:00N 12°06' W 068°54'6 0.5 1013.0
2020-Sep-23 02:00N 12°00' W 068°54'0 0.0 1012.0
2020-Sep-23 01:00N 12°00' W 068°54'0 0.0 1011.0
2020-Sep-23 00:00N 12°00' W 068°54'0 0.0 1010.0
2020-Sep-22 16:00N 12°00' W 068°54'0 0.0 1012.0
2020-Sep-22 15:00N 12°00' W 068°54'0 0.0 1013.0
2020-Sep-22 14:00N 12°00' W 068°54'0 0.0 1013.0
2020-Sep-22 03:00N 12°00' W 068°54'0 0.0 1012.0
2020-Sep-22 02:00N 12°00' W 068°54'6 2.0 1012.0
2020-Sep-21 23:00N 12°06' W 068°54'47 2.4 1009.0
2020-Sep-21 03:00N 12°12' W 069°42'8 2.8 1013.0
2020-Sep-21 00:00N 12°18' W 069°48'6 5.9 090 / 201011.0
2020-Sep-20 23:00N 12°18' W 069°54'13 1.2 070 / 161010.0
2020-Sep-20 12:00N 12°12' W 069°42'43 7.1 1012.0
2020-Sep-20 06:00N 11°48' W 069°06'13 4.4 160 / 81011.0 28.417.332.0
2020-Sep-20 03:00N 11°54' W 068°54'0 0.0 090 / 141012.0
2020-Sep-20 02:00N 11°54' W 068°54'0 0.0 070 / 141013.0
2020-Sep-20 01:00N 11°54' W 068°54'6 6.0 080 / 151012.0
2020-Sep-20 00:00N 12°00' W 068°54'0 0.0 060 / 151011.0
2020-Sep-19 23:00N 12°00' W 068°54'8 4.2 050 / 81010.0
2020-Sep-19 21:00N 12°06' W 069°00'6 0.6 040 / 91012.0 5.4 27.116.131.6
2020-Sep-19 11:00N 12°00' W 069°00'13 1.6 040 / 31012.0 5.4 27.116.131.6
2020-Sep-19 03:00N 12°06' W 069°12'0 0.0 1012.0
2020-Sep-19 02:00N 12°06' W 069°12'0 0.0 1012.0
2020-Sep-19 01:00N 12°06' W 069°12'6 5.9 040 / 211011.0
2020-Sep-19 00:00N 12°06' W 069°18'0 0.0 040 / 221011.0
2020-Sep-18 23:00N 12°06' W 069°18'6 1.2 040 / 211010.0
2020-Sep-18 18:00N 12°00' W 069°18'0 0.0 230 / 21011.010.8 34.122.531.6
2020-Sep-18 16:00N 12°00' W 069°18'0 0.0 100 / 21013.0
2020-Sep-18 15:00N 12°00' W 069°18'0 0.0 090 / 21014.0
2020-Sep-18 14:00N 12°00' W 069°18'0 0.0 120 / 6 gusting 151014.0 11.6 9.1
2020-Sep-18 11:00N 12°00' W 069°18'0 0.0 090 / 41011.1 5.4
2020-Sep-18 09:00N 12°00' W 069°18'0 0.0 080 / 151011.0 5.4
2020-Sep-18 08:00N 12°00' W 069°18'8 1.7 1011.0
2020-Sep-18 03:00N 11°54' W 069°12'0 0.0 080 / 151012.0
2020-Sep-18 02:00N 11°54' W 069°12'0 0.0 090 / 161012.0
2020-Sep-18 01:00N 11°54' W 069°12'0 0.0 080 / 151011.0
2020-Sep-18 00:00N 11°54' W 069°12'6 5.9 080 / 111011.0
2020-Sep-17 23:00N 11°54' W 069°06'6 0.8 070 / 171010.0
2020-Sep-17 16:00N 11°54' W 069°00'6 1.2 1014.0
2020-Sep-17 11:00N 11°54' W 068°54'6 0.7 130 / 161013.0 5.4
2020-Sep-17 03:00N 11°54' W 069°00'0 0.0 1014.0
2020-Sep-17 02:00N 11°54' W 069°00'8 8.4 1014.0
2020-Sep-17 01:00N 12°00' W 068°54'13 1.5 1014.0
2020-Sep-16 16:00N 12°06' W 069°06'6 5.9 130 / 251014.0
2020-Sep-16 15:00N 12°06' W 069°00'0 0.0 130 / 251015.0
2020-Sep-16 14:00N 12°06' W 069°00'8 0.8 100 / 161015.0
2020-Sep-16 03:00N 12°00' W 069°06'0 0.0 1015.0
2020-Sep-16 02:00N 12°00' W 069°06'0 0.0 1014.0
2020-Sep-16 01:00N 12°00' W 069°06'0 0.0 1014.0
2020-Sep-16 00:00N 12°00' W 069°06'6 5.9 1013.0
2020-Sep-15 23:00N 12°00' W 069°00'0 0.0 090 / 211012.0
2020-Sep-15 16:00N 12°00' W 069°00'8 8.4 1016.0
2020-Sep-15 15:00N 12°06' W 069°06'6 6.0 1016.0
2020-Sep-15 14:00N 12°12' W 069°06'   1015.0

Dump ship's entire track history